sensor_id;sensor_type;location;lat;lon;timestamp;P1;durP1;ratioP1;P2;durP2;ratioP2
13785;SDS011;47474;48.824;9.384;2024-01-11T00:01:13;35.60;;;22.73;;
13785;SDS011;47474;48.824;9.384;2024-01-11T00:03:39;37.03;;;23.57;;
13785;SDS011;47474;48.824;9.384;2024-01-11T00:06:07;40.87;;;25.13;;
13785;SDS011;47474;48.824;9.384;2024-01-11T00:08:34;44.00;;;24.43;;
13785;SDS011;47474;48.824;9.384;2024-01-11T00:11:00;49.87;;;25.33;;
13785;SDS011;47474;48.824;9.384;2024-01-11T00:13:27;36.03;;;21.60;;
13785;SDS011;47474;48.824;9.384;2024-01-11T00:15:53;37.80;;;23.57;;
13785;SDS011;47474;48.824;9.384;2024-01-11T00:18:20;40.60;;;22.30;;
13785;SDS011;47474;48.824;9.384;2024-01-11T00:20:46;36.10;;;22.17;;
13785;SDS011;47474;48.824;9.384;2024-01-11T00:23:14;40.70;;;24.17;;
13785;SDS011;47474;48.824;9.384;2024-01-11T00:25:41;40.30;;;23.57;;
13785;SDS011;47474;48.824;9.384;2024-01-11T00:28:07;37.33;;;22.10;;
13785;SDS011;47474;48.824;9.384;2024-01-11T00:30:34;39.47;;;23.83;;
13785;SDS011;47474;48.824;9.384;2024-01-11T00:33:00;44.50;;;24.43;;
13785;SDS011;47474;48.824;9.384;2024-01-11T00:35:27;40.83;;;24.40;;
13785;SDS011;47474;48.824;9.384;2024-01-11T00:37:54;41.27;;;23.83;;
13785;SDS011;47474;48.824;9.384;2024-01-11T00:40:22;42.70;;;23.27;;
13785;SDS011;47474;48.824;9.384;2024-01-11T00:42:48;39.20;;;23.17;;
13785;SDS011;47474;48.824;9.384;2024-01-11T00:45:14;40.57;;;24.57;;
13785;SDS011;47474;48.824;9.384;2024-01-11T00:47:41;39.07;;;23.70;;
13785;SDS011;47474;48.824;9.384;2024-01-11T00:50:08;40.53;;;23.70;;
13785;SDS011;47474;48.824;9.384;2024-01-11T00:52:35;35.20;;;22.03;;
13785;SDS011;47474;48.824;9.384;2024-01-11T00:55:03;37.40;;;23.43;;
13785;SDS011;47474;48.824;9.384;2024-01-11T00:57:32;36.33;;;21.33;;
13785;SDS011;47474;48.824;9.384;2024-01-11T00:59:58;38.17;;;22.77;;
13785;SDS011;47474;48.824;9.384;2024-01-11T01:02:25;36.30;;;21.63;;
13785;SDS011;47474;48.824;9.384;2024-01-11T01:04:51;41.90;;;22.63;;
13785;SDS011;47474;48.824;9.384;2024-01-11T01:07:17;41.43;;;24.30;;
13785;SDS011;47474;48.824;9.384;2024-01-11T01:09:44;41.27;;;23.77;;
13785;SDS011;47474;48.824;9.384;2024-01-11T01:12:10;37.60;;;23.50;;
13785;SDS011;47474;48.824;9.384;2024-01-11T01:14:38;41.30;;;22.70;;
13785;SDS011;47474;48.824;9.384;2024-01-11T01:17:05;42.50;;;23.63;;
13785;SDS011;47474;48.824;9.384;2024-01-11T01:19:31;47.07;;;23.63;;
13785;SDS011;47474;48.824;9.384;2024-01-11T01:21:58;41.80;;;24.10;;
13785;SDS011;47474;48.824;9.384;2024-01-11T01:24:24;45.73;;;23.27;;
13785;SDS011;47474;48.824;9.384;2024-01-11T01:26:51;39.37;;;23.47;;
13785;SDS011;47474;48.824;9.384;2024-01-11T01:29:17;37.67;;;22.23;;
13785;SDS011;47474;48.824;9.384;2024-01-11T01:31:45;34.37;;;21.13;;
13785;SDS011;47474;48.824;9.384;2024-01-11T01:34:12;35.13;;;21.33;;
13785;SDS011;47474;48.824;9.384;2024-01-11T01:36:40;38.33;;;22.13;;
13785;SDS011;47474;48.824;9.384;2024-01-11T01:39:06;38.63;;;22.00;;
13785;SDS011;47474;48.824;9.384;2024-01-11T01:41:33;36.10;;;21.80;;
13785;SDS011;47474;48.824;9.384;2024-01-11T01:44:00;39.97;;;22.23;;
13785;SDS011;47474;48.824;9.384;2024-01-11T01:46:26;36.07;;;21.83;;
13785;SDS011;47474;48.824;9.384;2024-01-11T01:48:56;38.87;;;20.87;;
13785;SDS011;47474;48.824;9.384;2024-01-11T01:51:24;41.57;;;23.53;;
13785;SDS011;47474;48.824;9.384;2024-01-11T01:53:53;38.40;;;21.77;;
13785;SDS011;47474;48.824;9.384;2024-01-11T01:56:20;38.80;;;22.27;;
13785;SDS011;47474;48.824;9.384;2024-01-11T01:58:47;39.80;;;22.67;;
13785;SDS011;47474;48.824;9.384;2024-01-11T02:01:14;36.27;;;22.03;;
13785;SDS011;47474;48.824;9.384;2024-01-11T02:03:41;36.23;;;20.97;;
13785;SDS011;47474;48.824;9.384;2024-01-11T02:06:09;38.43;;;22.80;;
13785;SDS011;47474;48.824;9.384;2024-01-11T02:08:35;41.40;;;23.93;;
13785;SDS011;47474;48.824;9.384;2024-01-11T02:11:02;35.30;;;21.17;;
13785;SDS011;47474;48.824;9.384;2024-01-11T02:13:29;35.57;;;21.00;;
13785;SDS011;47474;48.824;9.384;2024-01-11T02:15:55;38.03;;;21.17;;
13785;SDS011;47474;48.824;9.384;2024-01-11T02:18:22;35.87;;;21.73;;
13785;SDS011;47474;48.824;9.384;2024-01-11T02:20:48;37.10;;;21.37;;
13785;SDS011;47474;48.824;9.384;2024-01-11T02:23:17;34.83;;;20.50;;
13785;SDS011;47474;48.824;9.384;2024-01-11T02:25:45;34.67;;;19.43;;
13785;SDS011;47474;48.824;9.384;2024-01-11T02:28:12;35.63;;;21.80;;
13785;SDS011;47474;48.824;9.384;2024-01-11T02:30:38;31.83;;;18.90;;
13785;SDS011;47474;48.824;9.384;2024-01-11T02:33:05;34.77;;;20.83;;
13785;SDS011;47474;48.824;9.384;2024-01-11T02:35:31;36.93;;;20.60;;
13785;SDS011;47474;48.824;9.384;2024-01-11T02:37:58;35.23;;;20.80;;
13785;SDS011;47474;48.824;9.384;2024-01-11T02:40:25;32.87;;;20.03;;
13785;SDS011;47474;48.824;9.384;2024-01-11T02:42:53;38.60;;;21.53;;
13785;SDS011;47474;48.824;9.384;2024-01-11T02:45:20;36.63;;;22.10;;
13785;SDS011;47474;48.824;9.384;2024-01-11T02:47:46;34.53;;;20.73;;
13785;SDS011;47474;48.824;9.384;2024-01-11T02:50:13;38.33;;;20.73;;
13785;SDS011;47474;48.824;9.384;2024-01-11T02:52:39;39.83;;;21.27;;
13785;SDS011;47474;48.824;9.384;2024-01-11T02:55:06;40.60;;;23.03;;
13785;SDS011;47474;48.824;9.384;2024-01-11T02:57:33;38.03;;;22.00;;
13785;SDS011;47474;48.824;9.384;2024-01-11T03:00:01;40.33;;;22.97;;
13785;SDS011;47474;48.824;9.384;2024-01-11T03:02:27;40.17;;;20.80;;
13785;SDS011;47474;48.824;9.384;2024-01-11T03:04:53;33.50;;;20.60;;
13785;SDS011;47474;48.824;9.384;2024-01-11T03:07:20;34.23;;;21.20;;
13785;SDS011;47474;48.824;9.384;2024-01-11T03:09:46;35.83;;;20.30;;
13785;SDS011;47474;48.824;9.384;2024-01-11T03:12:13;39.40;;;21.27;;
13785;SDS011;47474;48.824;9.384;2024-01-11T03:14:39;33.10;;;20.37;;
13785;SDS011;47474;48.824;9.384;2024-01-11T03:17:07;32.53;;;20.07;;
13785;SDS011;47474;48.824;9.384;2024-01-11T03:19:34;36.03;;;20.23;;
13785;SDS011;47474;48.824;9.384;2024-01-11T03:22:00;39.07;;;20.43;;
13785;SDS011;47474;48.824;9.384;2024-01-11T03:24:31;33.17;;;20.70;;
13785;SDS011;47474;48.824;9.384;2024-01-11T03:26:57;33.33;;;19.67;;
13785;SDS011;47474;48.824;9.384;2024-01-11T03:29:24;32.93;;;18.97;;
13785;SDS011;47474;48.824;9.384;2024-01-11T03:31:50;36.20;;;19.70;;
13785;SDS011;47474;48.824;9.384;2024-01-11T03:34:18;33.80;;;20.57;;
13785;SDS011;47474;48.824;9.384;2024-01-11T03:36:44;34.50;;;20.13;;
13785;SDS011;47474;48.824;9.384;2024-01-11T03:39:11;29.27;;;19.40;;
13785;SDS011;47474;48.824;9.384;2024-01-11T03:41:39;36.80;;;20.80;;
13785;SDS011;47474;48.824;9.384;2024-01-11T03:44:09;34.43;;;21.63;;
13785;SDS011;47474;48.824;9.384;2024-01-11T03:46:36;35.07;;;20.57;;
13785;SDS011;47474;48.824;9.384;2024-01-11T03:49:02;36.97;;;19.03;;
13785;SDS011;47474;48.824;9.384;2024-01-11T03:51:30;30.37;;;19.30;;
13785;SDS011;47474;48.824;9.384;2024-01-11T03:53:56;33.90;;;19.27;;
13785;SDS011;47474;48.824;9.384;2024-01-11T03:56:23;34.73;;;20.57;;
13785;SDS011;47474;48.824;9.384;2024-01-11T03:58:49;33.20;;;20.13;;
13785;SDS011;47474;48.824;9.384;2024-01-11T04:01:16;36.37;;;19.83;;
13785;SDS011;47474;48.824;9.384;2024-01-11T04:03:42;31.97;;;19.43;;
13785;SDS011;47474;48.824;9.384;2024-01-11T04:06:09;34.13;;;19.27;;
13785;SDS011;47474;48.824;9.384;2024-01-11T04:08:36;32.90;;;21.33;;
13785;SDS011;47474;48.824;9.384;2024-01-11T04:11:03;34.33;;;20.57;;
13785;SDS011;47474;48.824;9.384;2024-01-11T04:13:30;33.27;;;20.43;;
13785;SDS011;47474;48.824;9.384;2024-01-11T04:15:56;36.80;;;20.10;;
13785;SDS011;47474;48.824;9.384;2024-01-11T04:18:22;36.70;;;20.07;;
13785;SDS011;47474;48.824;9.384;2024-01-11T04:20:49;38.70;;;20.33;;
13785;SDS011;47474;48.824;9.384;2024-01-11T04:23:15;36.87;;;22.13;;
13785;SDS011;47474;48.824;9.384;2024-01-11T04:25:44;34.10;;;20.50;;
13785;SDS011;47474;48.824;9.384;2024-01-11T04:28:10;35.23;;;19.43;;
13785;SDS011;47474;48.824;9.384;2024-01-11T04:30:37;39.57;;;20.70;;
13785;SDS011;47474;48.824;9.384;2024-01-11T04:33:03;32.43;;;19.83;;
13785;SDS011;47474;48.824;9.384;2024-01-11T04:35:30;30.87;;;18.80;;
13785;SDS011;47474;48.824;9.384;2024-01-11T04:37:56;30.50;;;19.00;;
13785;SDS011;47474;48.824;9.384;2024-01-11T04:40:23;34.20;;;19.77;;
13785;SDS011;47474;48.824;9.384;2024-01-11T04:42:51;36.23;;;20.23;;
13785;SDS011;47474;48.824;9.384;2024-01-11T04:45:17;32.70;;;19.80;;
13785;SDS011;47474;48.824;9.384;2024-01-11T04:47:43;32.77;;;20.43;;
13785;SDS011;47474;48.824;9.384;2024-01-11T04:50:10;34.10;;;19.93;;
13785;SDS011;47474;48.824;9.384;2024-01-11T04:52:36;35.20;;;19.60;;
13785;SDS011;47474;48.824;9.384;2024-01-11T04:55:03;32.70;;;19.80;;
13785;SDS011;47474;48.824;9.384;2024-01-11T04:57:30;39.40;;;20.57;;
13785;SDS011;47474;48.824;9.384;2024-01-11T04:59:58;32.33;;;18.67;;
13785;SDS011;47474;48.824;9.384;2024-01-11T05:02:24;31.23;;;19.10;;
13785;SDS011;47474;48.824;9.384;2024-01-11T05:04:51;39.03;;;20.63;;
13785;SDS011;47474;48.824;9.384;2024-01-11T05:07:17;32.90;;;19.57;;
13785;SDS011;47474;48.824;9.384;2024-01-11T05:09:44;34.70;;;20.60;;
13785;SDS011;47474;48.824;9.384;2024-01-11T05:12:10;34.50;;;19.27;;
13785;SDS011;47474;48.824;9.384;2024-01-11T05:14:36;34.70;;;19.40;;
13785;SDS011;47474;48.824;9.384;2024-01-11T05:17:04;32.53;;;18.63;;
13785;SDS011;47474;48.824;9.384;2024-01-11T05:19:31;37.67;;;20.73;;
13785;SDS011;47474;48.824;9.384;2024-01-11T05:21:57;35.00;;;20.80;;
13785;SDS011;47474;48.824;9.384;2024-01-11T05:24:24;34.07;;;19.03;;
13785;SDS011;47474;48.824;9.384;2024-01-11T05:26:50;32.70;;;18.67;;
13785;SDS011;47474;48.824;9.384;2024-01-11T05:29:17;33.97;;;20.07;;
13785;SDS011;47474;48.824;9.384;2024-01-11T05:31:43;37.73;;;20.40;;
13785;SDS011;47474;48.824;9.384;2024-01-11T05:34:11;36.30;;;20.20;;
13785;SDS011;47474;48.824;9.384;2024-01-11T05:36:38;39.30;;;20.87;;
13785;SDS011;47474;48.824;9.384;2024-01-11T05:39:04;30.53;;;19.53;;
13785;SDS011;47474;48.824;9.384;2024-01-11T05:41:31;36.40;;;21.73;;
13785;SDS011;47474;48.824;9.384;2024-01-11T05:43:57;34.93;;;20.97;;
13785;SDS011;47474;48.824;9.384;2024-01-11T05:46:24;38.00;;;20.47;;
13785;SDS011;47474;48.824;9.384;2024-01-11T05:48:50;33.27;;;19.40;;
13785;SDS011;47474;48.824;9.384;2024-01-11T05:51:19;34.27;;;20.00;;
13785;SDS011;47474;48.824;9.384;2024-01-11T05:53:45;30.10;;;19.63;;
13785;SDS011;47474;48.824;9.384;2024-01-11T05:56:12;32.63;;;20.07;;
13785;SDS011;47474;48.824;9.384;2024-01-11T05:58:39;35.30;;;20.20;;
13785;SDS011;47474;48.824;9.384;2024-01-11T06:01:05;32.87;;;20.60;;
13785;SDS011;47474;48.824;9.384;2024-01-11T06:03:32;36.27;;;20.87;;
13785;SDS011;47474;48.824;9.384;2024-01-11T06:05:59;32.30;;;20.80;;
13785;SDS011;47474;48.824;9.384;2024-01-11T06:08:28;35.33;;;19.80;;
13785;SDS011;47474;48.824;9.384;2024-01-11T06:10:55;39.33;;;20.53;;
13785;SDS011;47474;48.824;9.384;2024-01-11T06:13:21;38.83;;;20.70;;
13785;SDS011;47474;48.824;9.384;2024-01-11T06:15:48;35.40;;;19.27;;
13785;SDS011;47474;48.824;9.384;2024-01-11T06:18:15;31.87;;;18.97;;
13785;SDS011;47474;48.824;9.384;2024-01-11T06:20:41;32.43;;;19.73;;
13785;SDS011;47474;48.824;9.384;2024-01-11T06:23:08;34.47;;;18.37;;
13785;SDS011;47474;48.824;9.384;2024-01-11T06:25:35;37.70;;;20.57;;
13785;SDS011;47474;48.824;9.384;2024-01-11T06:28:02;36.37;;;20.90;;
13785;SDS011;47474;48.824;9.384;2024-01-11T06:30:31;37.60;;;20.10;;
13785;SDS011;47474;48.824;9.384;2024-01-11T06:32:58;35.07;;;21.63;;
13785;SDS011;47474;48.824;9.384;2024-01-11T06:35:24;48.93;;;26.60;;
13785;SDS011;47474;48.824;9.384;2024-01-11T06:37:51;48.37;;;28.43;;
13785;SDS011;47474;48.824;9.384;2024-01-11T06:40:17;42.07;;;23.43;;
13785;SDS011;47474;48.824;9.384;2024-01-11T06:42:46;44.53;;;22.83;;
13785;SDS011;47474;48.824;9.384;2024-01-11T06:45:13;40.93;;;22.30;;
13785;SDS011;47474;48.824;9.384;2024-01-11T06:47:39;37.53;;;20.80;;
13785;SDS011;47474;48.824;9.384;2024-01-11T06:50:06;38.53;;;21.20;;
13785;SDS011;47474;48.824;9.384;2024-01-11T06:52:33;37.97;;;20.47;;
13785;SDS011;47474;48.824;9.384;2024-01-11T06:55:00;36.23;;;21.00;;
13785;SDS011;47474;48.824;9.384;2024-01-11T06:57:27;38.33;;;22.33;;
13785;SDS011;47474;48.824;9.384;2024-01-11T06:59:55;34.67;;;20.93;;
13785;SDS011;47474;48.824;9.384;2024-01-11T07:02:21;37.77;;;22.90;;
13785;SDS011;47474;48.824;9.384;2024-01-11T07:04:47;39.67;;;20.83;;
13785;SDS011;47474;48.824;9.384;2024-01-11T07:07:14;38.47;;;21.00;;
13785;SDS011;47474;48.824;9.384;2024-01-11T07:09:41;36.10;;;20.90;;
13785;SDS011;47474;48.824;9.384;2024-01-11T07:12:07;35.83;;;20.77;;
13785;SDS011;47474;48.824;9.384;2024-01-11T07:14:35;33.43;;;20.77;;
13785;SDS011;47474;48.824;9.384;2024-01-11T07:17:03;34.73;;;21.53;;
13785;SDS011;47474;48.824;9.384;2024-01-11T07:19:30;42.73;;;23.00;;
13785;SDS011;47474;48.824;9.384;2024-01-11T07:21:57;38.07;;;22.30;;
13785;SDS011;47474;48.824;9.384;2024-01-11T07:24:23;37.67;;;21.33;;
13785;SDS011;47474;48.824;9.384;2024-01-11T07:26:50;42.07;;;24.03;;
13785;SDS011;47474;48.824;9.384;2024-01-11T07:29:16;42.07;;;23.33;;
13785;SDS011;47474;48.824;9.384;2024-01-11T07:31:43;37.10;;;21.50;;
13785;SDS011;47474;48.824;9.384;2024-01-11T07:34:11;39.37;;;22.00;;
13785;SDS011;47474;48.824;9.384;2024-01-11T07:36:37;39.47;;;21.97;;
13785;SDS011;47474;48.824;9.384;2024-01-11T07:39:06;42.40;;;23.80;;
13785;SDS011;47474;48.824;9.384;2024-01-11T07:41:33;37.57;;;21.33;;
13785;SDS011;47474;48.824;9.384;2024-01-11T07:43:59;37.87;;;21.93;;
13785;SDS011;47474;48.824;9.384;2024-01-11T07:46:26;39.53;;;22.80;;
13785;SDS011;47474;48.824;9.384;2024-01-11T07:48:52;41.00;;;24.27;;
13785;SDS011;47474;48.824;9.384;2024-01-11T07:51:20;43.23;;;23.27;;
13785;SDS011;47474;48.824;9.384;2024-01-11T07:53:46;41.17;;;24.33;;
13785;SDS011;47474;48.824;9.384;2024-01-11T07:56:13;41.07;;;25.20;;
13785;SDS011;47474;48.824;9.384;2024-01-11T07:58:40;35.30;;;23.80;;
13785;SDS011;47474;48.824;9.384;2024-01-11T08:01:06;40.57;;;24.73;;
13785;SDS011;47474;48.824;9.384;2024-01-11T08:03:33;37.33;;;23.13;;
13785;SDS011;47474;48.824;9.384;2024-01-11T08:06:00;41.57;;;23.00;;
13785;SDS011;47474;48.824;9.384;2024-01-11T08:08:28;41.37;;;24.93;;
13785;SDS011;47474;48.824;9.384;2024-01-11T08:10:54;47.63;;;24.93;;
13785;SDS011;47474;48.824;9.384;2024-01-11T08:13:21;47.90;;;25.80;;
13785;SDS011;47474;48.824;9.384;2024-01-11T08:15:47;47.87;;;26.03;;
13785;SDS011;47474;48.824;9.384;2024-01-11T08:18:14;46.47;;;25.87;;
13785;SDS011;47474;48.824;9.384;2024-01-11T08:20:41;48.20;;;27.10;;
13785;SDS011;47474;48.824;9.384;2024-01-11T08:23:08;51.80;;;26.07;;
13785;SDS011;47474;48.824;9.384;2024-01-11T08:25:36;39.90;;;24.63;;
13785;SDS011;47474;48.824;9.384;2024-01-11T08:28:03;43.43;;;25.53;;
13785;SDS011;47474;48.824;9.384;2024-01-11T08:30:29;39.30;;;23.27;;
13785;SDS011;47474;48.824;9.384;2024-01-11T08:32:56;44.10;;;24.37;;
13785;SDS011;47474;48.824;9.384;2024-01-11T08:35:22;34.17;;;23.70;;
13785;SDS011;47474;48.824;9.384;2024-01-11T08:37:49;47.87;;;25.17;;
13785;SDS011;47474;48.824;9.384;2024-01-11T08:40:15;45.53;;;26.17;;
13785;SDS011;47474;48.824;9.384;2024-01-11T08:42:44;43.87;;;24.13;;
13785;SDS011;47474;48.824;9.384;2024-01-11T08:45:10;42.53;;;23.23;;
13785;SDS011;47474;48.824;9.384;2024-01-11T08:47:43;40.87;;;23.00;;
13785;SDS011;47474;48.824;9.384;2024-01-11T08:50:11;46.97;;;22.93;;
13785;SDS011;47474;48.824;9.384;2024-01-11T08:52:38;41.60;;;23.83;;
13785;SDS011;47474;48.824;9.384;2024-01-11T08:55:05;47.47;;;24.70;;
13785;SDS011;47474;48.824;9.384;2024-01-11T08:57:32;43.50;;;26.37;;
13785;SDS011;47474;48.824;9.384;2024-01-11T09:00:02;46.87;;;27.70;;
13785;SDS011;47474;48.824;9.384;2024-01-11T09:02:29;50.40;;;28.03;;
13785;SDS011;47474;48.824;9.384;2024-01-11T09:04:55;55.17;;;31.27;;
13785;SDS011;47474;48.824;9.384;2024-01-11T09:07:21;49.67;;;30.10;;
13785;SDS011;47474;48.824;9.384;2024-01-11T09:09:48;43.83;;;27.37;;
13785;SDS011;47474;48.824;9.384;2024-01-11T09:12:15;41.30;;;24.23;;
13785;SDS011;47474;48.824;9.384;2024-01-11T09:14:41;41.07;;;25.97;;
13785;SDS011;47474;48.824;9.384;2024-01-11T09:17:10;41.77;;;24.57;;
13785;SDS011;47474;48.824;9.384;2024-01-11T09:19:36;37.73;;;25.10;;
13785;SDS011;47474;48.824;9.384;2024-01-11T09:22:05;39.77;;;25.27;;
13785;SDS011;47474;48.824;9.384;2024-01-11T09:24:33;44.60;;;26.67;;
13785;SDS011;47474;48.824;9.384;2024-01-11T09:27:00;41.97;;;23.60;;
13785;SDS011;47474;48.824;9.384;2024-01-11T09:29:26;41.87;;;25.37;;
13785;SDS011;47474;48.824;9.384;2024-01-11T09:31:53;41.53;;;24.80;;
13785;SDS011;47474;48.824;9.384;2024-01-11T09:34:21;42.20;;;24.13;;
13785;SDS011;47474;48.824;9.384;2024-01-11T09:36:47;41.63;;;25.43;;
13785;SDS011;47474;48.824;9.384;2024-01-11T09:39:14;39.20;;;24.97;;
13785;SDS011;47474;48.824;9.384;2024-01-11T09:41:42;44.87;;;24.53;;
13785;SDS011;47474;48.824;9.384;2024-01-11T09:44:11;41.67;;;25.40;;
13785;SDS011;47474;48.824;9.384;2024-01-11T09:46:38;38.23;;;25.70;;
13785;SDS011;47474;48.824;9.384;2024-01-11T09:49:05;38.67;;;24.30;;
13785;SDS011;47474;48.824;9.384;2024-01-11T09:51:33;42.83;;;27.00;;
13785;SDS011;47474;48.824;9.384;2024-01-11T09:54:00;42.63;;;26.10;;
13785;SDS011;47474;48.824;9.384;2024-01-11T09:56:27;46.33;;;24.83;;
13785;SDS011;47474;48.824;9.384;2024-01-11T09:58:53;42.47;;;25.63;;
13785;SDS011;47474;48.824;9.384;2024-01-11T10:01:20;38.57;;;23.87;;
13785;SDS011;47474;48.824;9.384;2024-01-11T10:03:48;39.13;;;24.47;;
13785;SDS011;47474;48.824;9.384;2024-01-11T10:06:14;46.07;;;25.90;;
13785;SDS011;47474;48.824;9.384;2024-01-11T10:08:43;37.40;;;23.63;;
13785;SDS011;47474;48.824;9.384;2024-01-11T10:11:09;37.90;;;23.67;;
13785;SDS011;47474;48.824;9.384;2024-01-11T10:13:36;40.30;;;24.93;;
13785;SDS011;47474;48.824;9.384;2024-01-11T10:16:05;39.93;;;23.90;;
13785;SDS011;47474;48.824;9.384;2024-01-11T10:18:32;41.70;;;24.80;;
13785;SDS011;47474;48.824;9.384;2024-01-11T10:20:59;39.63;;;23.10;;
13785;SDS011;47474;48.824;9.384;2024-01-11T10:23:25;38.27;;;24.07;;
13785;SDS011;47474;48.824;9.384;2024-01-11T10:25:57;37.20;;;23.73;;
13785;SDS011;47474;48.824;9.384;2024-01-11T10:28:24;36.53;;;23.40;;
13785;SDS011;47474;48.824;9.384;2024-01-11T10:30:51;39.60;;;24.27;;
13785;SDS011;47474;48.824;9.384;2024-01-11T10:33:19;42.87;;;25.30;;
13785;SDS011;47474;48.824;9.384;2024-01-11T10:35:46;40.23;;;25.10;;
13785;SDS011;47474;48.824;9.384;2024-01-11T10:38:14;37.00;;;24.17;;
13785;SDS011;47474;48.824;9.384;2024-01-11T10:40:41;34.10;;;21.50;;
13785;SDS011;47474;48.824;9.384;2024-01-11T10:43:09;39.23;;;24.13;;
13785;SDS011;47474;48.824;9.384;2024-01-11T10:45:36;35.77;;;23.07;;
13785;SDS011;47474;48.824;9.384;2024-01-11T10:48:06;31.83;;;22.80;;
13785;SDS011;47474;48.824;9.384;2024-01-11T10:50:34;37.30;;;23.63;;
13785;SDS011;47474;48.824;9.384;2024-01-11T10:53:08;35.63;;;23.43;;
13785;SDS011;47474;48.824;9.384;2024-01-11T10:55:38;39.93;;;24.60;;
13785;SDS011;47474;48.824;9.384;2024-01-11T10:58:05;36.73;;;24.13;;
13785;SDS011;47474;48.824;9.384;2024-01-11T11:00:34;35.93;;;23.63;;
13785;SDS011;47474;48.824;9.384;2024-01-11T11:03:01;38.40;;;24.97;;
13785;SDS011;47474;48.824;9.384;2024-01-11T11:05:29;38.13;;;25.03;;
13785;SDS011;47474;48.824;9.384;2024-01-11T11:07:56;37.37;;;24.00;;
13785;SDS011;47474;48.824;9.384;2024-01-11T11:10:24;34.87;;;24.03;;
13785;SDS011;47474;48.824;9.384;2024-01-11T11:12:52;34.40;;;21.97;;
13785;SDS011;47474;48.824;9.384;2024-01-11T11:15:21;35.33;;;24.07;;
13785;SDS011;47474;48.824;9.384;2024-01-11T11:17:49;35.10;;;23.60;;
13785;SDS011;47474;48.824;9.384;2024-01-11T11:20:18;36.23;;;23.20;;
13785;SDS011;47474;48.824;9.384;2024-01-11T11:22:47;35.00;;;23.40;;
13785;SDS011;47474;48.824;9.384;2024-01-11T11:25:23;35.80;;;24.23;;
13785;SDS011;47474;48.824;9.384;2024-01-11T11:27:50;30.97;;;23.40;;
13785;SDS011;47474;48.824;9.384;2024-01-11T11:30:18;34.00;;;24.40;;
13785;SDS011;47474;48.824;9.384;2024-01-11T11:32:45;35.17;;;23.87;;
13785;SDS011;47474;48.824;9.384;2024-01-11T11:35:13;33.70;;;24.93;;
13785;SDS011;47474;48.824;9.384;2024-01-11T11:37:39;32.37;;;24.23;;
13785;SDS011;47474;48.824;9.384;2024-01-11T11:40:06;33.38;;;23.35;;
13785;SDS011;47474;48.824;9.384;2024-01-11T11:42:35;34.63;;;24.53;;
13785;SDS011;47474;48.824;9.384;2024-01-11T11:45:02;31.52;;;23.08;;
13785;SDS011;47474;48.824;9.384;2024-01-11T11:47:33;32.90;;;24.35;;
13785;SDS011;47474;48.824;9.384;2024-01-11T11:50:04;35.80;;;26.17;;
13785;SDS011;47474;48.824;9.384;2024-01-11T11:52:33;34.72;;;24.90;;
13785;SDS011;47474;48.824;9.384;2024-01-11T11:55:01;35.15;;;24.13;;
13785;SDS011;47474;48.824;9.384;2024-01-11T11:57:28;32.58;;;22.95;;
13785;SDS011;47474;48.824;9.384;2024-01-11T11:59:54;32.20;;;24.25;;
13785;SDS011;47474;48.824;9.384;2024-01-11T12:02:22;32.78;;;23.10;;
13785;SDS011;47474;48.824;9.384;2024-01-11T12:04:49;39.70;;;25.02;;
13785;SDS011;47474;48.824;9.384;2024-01-11T12:07:16;32.63;;;25.77;;
13785;SDS011;47474;48.824;9.384;2024-01-11T12:09:44;31.60;;;23.90;;
13785;SDS011;47474;48.824;9.384;2024-01-11T12:12:10;31.43;;;24.13;;
13785;SDS011;47474;48.824;9.384;2024-01-11T12:14:37;37.17;;;27.90;;
13785;SDS011;47474;48.824;9.384;2024-01-11T12:17:04;34.97;;;26.40;;
13785;SDS011;47474;48.824;9.384;2024-01-11T12:19:32;39.47;;;28.17;;
13785;SDS011;47474;48.824;9.384;2024-01-11T12:21:58;33.63;;;24.13;;
13785;SDS011;47474;48.824;9.384;2024-01-11T12:24:25;37.30;;;26.60;;
13785;SDS011;47474;48.824;9.384;2024-01-11T12:26:53;33.33;;;24.73;;
13785;SDS011;47474;48.824;9.384;2024-01-11T12:29:19;36.97;;;25.10;;
13785;SDS011;47474;48.824;9.384;2024-01-11T12:31:46;32.63;;;23.17;;
13785;SDS011;47474;48.824;9.384;2024-01-11T12:34:13;33.40;;;24.90;;
13785;SDS011;47474;48.824;9.384;2024-01-11T12:36:40;35.63;;;25.23;;
13785;SDS011;47474;48.824;9.384;2024-01-11T12:39:06;32.47;;;23.70;;
13785;SDS011;47474;48.824;9.384;2024-01-11T12:41:34;33.00;;;23.67;;
13785;SDS011;47474;48.824;9.384;2024-01-11T12:44:02;33.83;;;24.33;;
13785;SDS011;47474;48.824;9.384;2024-01-11T12:46:28;32.83;;;24.23;;
13785;SDS011;47474;48.824;9.384;2024-01-11T12:48:55;33.97;;;24.90;;
13785;SDS011;47474;48.824;9.384;2024-01-11T12:51:21;35.13;;;24.07;;
13785;SDS011;47474;48.824;9.384;2024-01-11T12:53:50;34.23;;;23.80;;
13785;SDS011;47474;48.824;9.384;2024-01-11T12:56:18;40.37;;;25.40;;
13785;SDS011;47474;48.824;9.384;2024-01-11T12:58:46;37.63;;;24.30;;
13785;SDS011;47474;48.824;9.384;2024-01-11T13:01:14;41.27;;;24.83;;
13785;SDS011;47474;48.824;9.384;2024-01-11T13:03:43;38.80;;;25.57;;
13785;SDS011;47474;48.824;9.384;2024-01-11T13:06:10;36.20;;;24.67;;
13785;SDS011;47474;48.824;9.384;2024-01-11T13:08:38;34.43;;;24.97;;
13785;SDS011;47474;48.824;9.384;2024-01-11T13:11:06;33.37;;;24.27;;
13785;SDS011;47474;48.824;9.384;2024-01-11T13:13:33;32.97;;;22.40;;
13785;SDS011;47474;48.824;9.384;2024-01-11T13:16:00;36.73;;;24.87;;
13785;SDS011;47474;48.824;9.384;2024-01-11T13:18:32;38.67;;;26.10;;
13785;SDS011;47474;48.824;9.384;2024-01-11T13:20:58;36.33;;;24.43;;
13785;SDS011;47474;48.824;9.384;2024-01-11T13:23:25;38.70;;;24.97;;
13785;SDS011;47474;48.824;9.384;2024-01-11T13:25:51;33.53;;;23.37;;
13785;SDS011;47474;48.824;9.384;2024-01-11T13:28:18;34.97;;;23.57;;
13785;SDS011;47474;48.824;9.384;2024-01-11T13:30:44;31.30;;;22.30;;
13785;SDS011;47474;48.824;9.384;2024-01-11T13:33:11;35.17;;;23.80;;
13785;SDS011;47474;48.824;9.384;2024-01-11T13:35:40;33.20;;;22.03;;
13785;SDS011;47474;48.824;9.384;2024-01-11T13:38:08;33.53;;;23.47;;
13785;SDS011;47474;48.824;9.384;2024-01-11T13:40:34;33.83;;;23.90;;
13785;SDS011;47474;48.824;9.384;2024-01-11T13:43:01;33.03;;;23.60;;
13785;SDS011;47474;48.824;9.384;2024-01-11T13:45:28;33.00;;;23.03;;
13785;SDS011;47474;48.824;9.384;2024-01-11T13:47:54;29.60;;;21.77;;
13785;SDS011;47474;48.824;9.384;2024-01-11T13:50:21;32.37;;;22.97;;
13785;SDS011;47474;48.824;9.384;2024-01-11T13:52:50;31.63;;;22.80;;
13785;SDS011;47474;48.824;9.384;2024-01-11T13:55:16;32.97;;;23.57;;
13785;SDS011;47474;48.824;9.384;2024-01-11T13:57:44;31.57;;;22.33;;
13785;SDS011;47474;48.824;9.384;2024-01-11T14:00:11;35.70;;;24.37;;
13785;SDS011;47474;48.824;9.384;2024-01-11T14:02:38;32.40;;;22.27;;
13785;SDS011;47474;48.824;9.384;2024-01-11T14:05:06;30.40;;;22.93;;
13785;SDS011;47474;48.824;9.384;2024-01-11T14:07:36;33.47;;;24.07;;
13785;SDS011;47474;48.824;9.384;2024-01-11T14:10:04;34.30;;;23.87;;
13785;SDS011;47474;48.824;9.384;2024-01-11T14:12:31;36.80;;;23.93;;
13785;SDS011;47474;48.824;9.384;2024-01-11T14:14:58;33.90;;;24.20;;
13785;SDS011;47474;48.824;9.384;2024-01-11T14:17:25;33.43;;;22.93;;
13785;SDS011;47474;48.824;9.384;2024-01-11T14:19:51;36.00;;;23.43;;